Time;durP1;ratioP1;P1;durP2;ratioP2;P2;SDS_P1;SDS_P2;PMS_P1;PMS_P2;Temp;Humidity;BMP_temperature;BMP_pressure;BME280_temperature;BME280_humidity;BME280_pressure;Samples;Min_cycle;Max_cycle;Signal;HPM_P1;HPM_P2
2021/08/24 09:54:08;;;;;;;;;;;;;;;;;;5079321;27;19924;-60
2021/08/24 09:58:46;;;;;;;;;;;;;;;;;;5002709;27;20377;-68
2021/08/24 10:01:13;;;;;;;;;;;;;;;;;;5020522;28;19929;-54
2021/08/24 10:03:40;;;;;;;;;;;;;;;;;;5022001;28;19925;-65
2021/08/24 10:06:07;;;;;;;;;;;;;;;;;;5014893;28;53317;-59
2021/08/24 10:08:34;;;;;;;;;;;;;;;;;;4991223;28;55288;-57
2021/08/24 10:11:23;;;;;;;;;;;;;;;;;;2080654;27;52762;-59
2021/08/24 10:12:23;;;;;;;;;;;;;;;-142.11;100.00;64928.56;2067510;28;9480;-58
2021/08/24 10:13:24;;;;;;;;;;;;;;;;;;2065916;28;10036;-64
2021/08/24 10:14:25;;;;;;;;;;;;;;;;;;2070190;28;4680;-64
2021/08/24 10:15:25;;;;;;;;;;;;;;;;;;2067694;28;9784;-71
2021/08/24 10:16:26;;;;;;;;;;;;;;;;;;2066934;28;9424;-62
2021/08/24 10:17:26;;;;;;;;;;;;;;;;;;2071155;28;5548;-63
2021/08/24 10:18:30;;;;;;;;;;;;;;;;;;2072185;28;5421;-63
2021/08/24 10:19:31;;;;;;;;;;;;;;;;;;2070166;28;5529;-62
2021/08/24 10:20:32;;;;;;;;;;;;;;;;;;2075148;28;5522;-62
2021/08/24 10:21:33;;;;;;;;;;;;;;;;;;2078588;28;5315;-60
2021/08/24 10:22:34;;;;;;;;;;;;;;;;;;2075870;28;9502;-53
2021/08/24 10:23:35;;;;;;;;;;;;;;;;;;2071947;28;3876;-59
2021/08/24 10:24:36;;;;;;;;;;;;;;;;;;2071724;28;4113;-54
2021/08/24 10:25:36;;;;;;;;;;;;;;;;;;2070600;28;4832;-58
2021/08/24 10:26:37;;;;;;;;;;;;;;;;;;2071423;28;4210;-49
2021/08/24 10:27:37;;;;;;;;;;;;;;;;;;2070935;28;4318;-58
2021/08/24 10:28:38;;;;;;;;;;;;;;;;;;2073132;28;9698;-61
2021/08/24 10:29:40;;;;;;;;;;;;;;;;;;2071980;28;9791;-61
2021/08/24 10:30:40;;;;;;;;;;;;;;;;;;2071159;28;4557;-61
2021/08/24 10:31:41;;;;;;;;;;;;;;;;;;2072617;28;1594;-61
2021/08/24 10:32:42;;;;;;;;;;;;;;;;;;2072999;28;1039;-61
2021/08/24 10:50:41;;;;;;;;;;;;;;;;;;2037291;27;9615;-67
2021/08/24 10:51:41;;;;;;;;;;;;;;;;;;2103368;27;4045;-65
2021/08/24 10:52:42;;;;;;;;;;;;;;;;;;2092167;28;4301;-62
2021/08/24 10:53:42;;;;;;;;;;;;;;;;;;2087169;28;3912;-66
2021/08/24 10:54:43;;;;;;;;;;;;;;;;;;2087900;28;4121;-71
2021/08/24 10:55:44;;;;;;;;;;;;;;;;;;2087263;28;4028;-66
2021/08/24 10:56:44;;;;;;;;;;;;;;;;;;2086722;28;4095;-70
2021/08/24 10:57:46;;;;;;;;;;;;;;;;;;2089483;28;4471;-73
2021/08/24 10:58:47;;;;;;;;;;;;;;;;;;2090691;28;1020;-68
2021/08/24 10:59:47;;;;;;;;;;;;;;;;;;2089891;28;1092;-77
2021/08/24 11:00:48;;;;;;;;;;;;;;;;;;2086525;28;4324;-70
2021/08/24 11:01:49;;;;;;;;;;;;;;;;;;2086953;28;3957;-62
2021/08/24 11:02:49;;;;;;;;;;;;;;;;;;2087413;28;4021;-62
2021/08/24 11:03:50;;;;;;;;;;;;;;;;;;2085823;28;4121;-66
2021/08/24 11:04:51;;;;;;;;;;;;;;;;;;2084884;28;4521;-64
2021/08/24 11:05:51;;;;;;;;;;;;;;;;;;2082518;28;4463;-64
2021/08/24 11:06:52;;;;;;;;;;;;;;;;;;2083819;28;5558;-73
2021/08/24 11:07:53;;;;;;;;;;;;;;;;;;2085919;28;5694;-70
2021/08/24 11:08:54;;;;;;;;;;;;;;;;;;2085416;28;4196;-71
2021/08/24 11:09:55;;;;;;;;;;;;;;;;;;2087439;28;4113;-72
2021/08/24 11:10:55;;;;;;;;;;;;;;;;;;2085740;28;4339;-69
2021/08/24 11:11:56;;;;;;;;;;;;;;;;;;2089639;28;4461;-69
2021/08/24 11:12:56;;;;;;;;;;;;;;;;;;2087438;28;3875;-69
2021/08/24 11:13:57;;;;;;;;;;;;;;;;;;2086196;28;4621;-68
2021/08/24 11:14:57;;;;;;;;;;;;;;;;;;2085514;28;4933;-70
2021/08/24 11:15:58;;;;;;;;;;;;;;;;;;2085327;28;4531;-68
2021/08/24 11:16:58;;;;;;;;;;;;;;;;;;2083946;28;4479;-69
2021/08/24 11:17:59;;;;;;;;;;;;;;;;;;2086175;28;4392;-68
2021/08/24 11:19:00;;;;;;;;;;;;;;;;;;2088140;28;4638;-70
2021/08/24 11:20:01;;;;;;;;;;;;;;;;;;2088235;28;4407;-69
2021/08/24 11:21:01;;;;;;;;;;;;;;;;;;2088033;28;3173;-69
2021/08/24 11:22:02;;;;;;;;;;;;;;;;;;2088645;28;5000;-70
2021/08/24 11:23:02;;;;;;;;;;;;;;;;;;2087920;28;4288;-72
2021/08/24 11:24:03;;;;;;;;;;;;;;;;;;2088026;28;4356;-71
2021/08/24 11:25:03;;;;;;;;;;;;;;;;;;2088618;28;4424;-72
2021/08/24 11:26:04;;;;;;;;;;;;;;;;;;2087906;28;4357;-71
2021/08/24 11:27:56;;;;;;;;;;;;;;;;;;2097028;27;4739;-70
2021/08/24 11:28:56;;;;;;;;;;;;;;;;;;2099586;28;4104;-78
2021/08/24 11:29:57;;;;;;;;;;;;;;;;;;2097740;28;4091;-79
2021/08/24 11:30:57;;;;;;;;;;;;;;;;;;2084442;28;9198;-76
2021/08/24 11:31:58;;;;;;;;;;;;;;;;;;2081788;28;4613;-77
2021/08/24 11:32:58;;;;;;;;;;;;;;;;;;2078943;28;4420;-76
2021/08/24 11:33:59;;;;;;;;;;;;;;;;;;2081248;28;4432;-76
2021/08/24 11:35:01;;;;;;;;;;;;;;;;;;2080850;28;4224;-76
2021/08/24 11:36:02;;;;;;;;;;;;;;;;;;2082276;28;4306;-76
2021/08/24 11:37:02;;;;;;;;;;;;;;;;;;2080676;28;5321;-77
2021/08/24 11:38:03;;;;;;;;;;;;;;;;;;2080310;28;4315;-77
2021/08/24 11:39:03;;;;;;;;;;;;;;;;;;2079918;28;4407;-76
2021/08/24 11:40:04;;;;;;;;;;;;;;;;;;2081487;28;3635;-76
2021/08/24 11:41:04;;;;;;;;;;;;;;;;;;2081116;28;4337;-77
2021/08/24 11:42:05;;;;;;;;;;;;;;;;;;2081061;28;4576;-76
2021/08/24 11:43:06;;;;;;;;;;;;;;;;;;2082257;28;4613;-76
2021/08/24 11:44:07;;;;;;;;;;;;;;;;;;2081130;28;4335;-77
2021/08/24 11:45:08;;;;;;;;;;;;;;;;;;2083890;28;2020;-77
2021/08/24 11:46:08;;;;;;;;;;;;;;;;;;2078544;28;4565;-74
2021/08/24 11:47:09;;;;;;;;;;;;;;;;;;2080081;28;4040;-74
2021/08/24 11:48:11;;;;;;;;;;;;;;;;;;2080449;28;4212;-74
2021/08/24 11:49:12;;;;;;;;;;;;;;;;;;2082184;28;4397;-74
2021/08/24 11:50:13;;;;;;;;;;;;;;;;;;2080427;28;3719;-73
2021/08/24 11:51:14;;;;;;;;;;;;;;;;;;2082538;28;2099;-73
2021/08/24 11:52:15;;;;;;;;;;;;;;;;;;2081731;28;4356;-73
2021/08/24 11:53:15;;;;;;;;;;;;;;;;;;2081451;28;4504;-74
2021/08/24 11:54:16;;;;;;;;;;;;;;;;;;2081867;28;4101;-77
2021/08/24 11:55:16;;;;;;;;;;;;;;;;;;2080235;28;4263;-71
2021/08/24 11:56:17;;;;;;;;;;;;;;;;;;2077241;28;4150;-72
2021/08/24 11:57:17;;;;;;;;;;;;;;;;;;2080266;28;4005;-73
2021/08/24 11:58:18;;;;;;;;;;;;;;;;;;2078124;28;4522;-74
2021/08/24 11:59:18;;;;;;;;;;;;;;;;;;2079920;28;4549;-73
2021/08/24 12:00:19;;;;;;;;;;;;;;;;;;2077868;28;4258;-72
2021/08/24 12:01:20;;;;;;;;;;;;;;;;;;2082460;28;4584;-71
2021/08/24 12:02:21;;;;;;;;;;;;;;;;;;2082711;28;3870;-72
2021/08/24 12:03:22;;;;;;;;;;;;;;;;;;2076892;28;2795;-76
2021/08/24 12:04:23;;;;;;;;;;;;;;;;;;2078285;28;4425;-74
2021/08/24 12:05:23;;;;;;;;;;;;;;;;;;2078899;28;4275;-71
2021/08/24 12:06:24;;;;;;;;;;;;;;;;;;2076300;28;4295;-72
2021/08/24 12:07:24;;;;;;;;;;;;;;;;;;2077600;28;4288;-71
2021/08/24 12:08:26;;;;;;;;;;;;;;;;;;2076715;28;4474;-72
2021/08/24 12:09:27;;;;;;;;;;;;;;;;;;2073351;28;9365;-72
2021/08/24 12:10:28;;;;;;;;;;;;;;;;;;2075535;28;4995;-71
2021/08/24 12:11:29;;;;;;;;;;;;;;;;;;2080094;28;4397;-72
2021/08/24 12:12:29;;;;;;;;;;;;;;;;;;2077895;28;5085;-72
2021/08/24 12:13:31;;;;;;;;;;;;;;;;;;2078266;28;4894;-71
2021/08/24 12:14:32;;;;;;;;;;;;;;;;;;2078879;28;5163;-71
2021/08/24 12:15:32;;;;;;;;;;;;;;;;;;2079522;28;3983;-71
2021/08/24 12:16:33;;;;;;;;;;;;;;;;;;2072058;28;4306;-71
2021/08/24 12:17:33;;;;;;;;;;;;;;;;;;2077089;28;4892;-71
2021/08/24 12:18:34;;;;;;;;;;;;;;;;;;2075094;28;5136;-72
2021/08/24 12:19:34;;;;;;;;;;;;;;;;;;2077651;28;5390;-71
2021/08/24 12:20:37;;;;;;;;;;;;;;;;;;2074718;28;4365;-71
2021/08/24 12:21:38;;;;;;;;;;;;;;;;;;2074828;28;5225;-72
2021/08/24 12:22:42;;;;;;;;;;;;;;;;;;2078117;28;4556;-74
2021/08/24 12:23:42;;;;;;;;;;;;;;;;;;2075379;28;5082;-75
2021/08/24 12:24:44;;;;;;;;;;;;;;;;;;2076569;28;5210;-75
2021/08/24 12:25:45;;;;;;;;;;;;;;;;;;2078193;28;5215;-75
2021/08/24 12:26:45;;;;;;;;;;;;;;;;;;2072799;28;5256;-70
2021/08/24 12:27:46;;;;;;;;;;;;;;;;;;2084499;28;3807;-71
2021/08/24 12:28:47;;;;;;;;;;;;;;;;;;2084968;28;5309;-71
2021/08/24 12:29:47;;;;;;;;;;;;;;;;;;2083124;28;5649;-71
2021/08/24 12:30:48;;;;;;;;;;;;;;;;;;2064320;28;11252;-70
2021/08/24 12:31:49;;;;;;;;;;;;;;;;;;2093153;28;5068;-71
2021/08/24 12:32:49;;;;;;;;;;;;;;;;;;2085020;28;5115;-71
2021/08/24 12:33:50;;;;;;;;;;;;;;;;;;2082405;28;5273;-71
2021/08/24 12:34:51;;;;;;;;;;;;;;;;;;2086084;28;5260;-71
2021/08/24 12:35:52;;;;;;;;;;;;;;;;;;2086541;28;5240;-71
2021/08/24 12:36:53;;;;;;;;;;;;;;;;;;2083805;28;5137;-71
2021/08/24 12:37:53;;;;;;;;;;;;;;;;;;2082939;28;4112;-71
2021/08/24 12:38:54;;;;;;;;;;;;;;;;;;2081636;28;4752;-71
2021/08/24 12:39:55;;;;;;;;;;;;;;;;;;2080294;28;5323;-72
2021/08/24 12:40:56;;;;;;;;;;;;;;;;;;2079510;28;5243;-71
2021/08/24 12:41:56;;;;;;;;;;;;;;;;;;2078467;28;5472;-71
2021/08/24 12:42:57;;;;;;;;;;;;;;;;;;2079517;28;5217;-71
2021/08/24 12:43:58;;;;;;;;;;;;;;;;;;2078520;28;5179;-71
2021/08/24 12:44:58;;;;;;;;;;;;;;;;;;2080154;28;5318;-71
2021/08/24 12:45:59;;;;;;;;;;;;;;;;;;2076047;28;5328;-71
2021/08/24 12:47:00;;;;;;;;;;;;;;;;;;2075513;28;5095;-72
2021/08/24 12:48:01;;;;;;;;;;;;;;;;;;2078537;28;5340;-71
2021/08/24 12:49:02;;;;;;;;;;;;;;;;;;2081026;28;5184;-71
2021/08/24 12:50:03;;;;;;;;;;;;;;;;;;2079811;28;3384;-71
2021/08/24 12:51:03;;;;;;;;;;;;;;;;;;2076253;28;4678;-71
2021/08/24 12:52:04;;;;;;;;;;;;;;;;;;2078040;28;4423;-71
2021/08/24 12:53:05;;;;;;;;;;;;;;;;;;2079729;28;4419;-71
2021/08/24 12:54:06;;;;;;;;;;;;;;;;;;2080234;28;4933;-72
2021/08/24 12:55:07;;;;;;;;;;;;;;;;;;2078269;28;5033;-71
2021/08/24 12:56:08;;;;;;;;;;;;;;;;;;2080390;28;5564;-71
2021/08/24 12:57:08;;;;;;;;;;;;;;;;;;2079373;28;4683;-71
2021/08/24 12:58:09;;;;;;;;;;;;;;;;;;2080264;28;4985;-71
2021/08/24 12:59:09;;;;;;;;;;;;;;;;;;2082141;28;5346;-71
2021/08/24 13:00:10;;;;;;;;;;;;;;;;;;2079488;28;5099;-71
2021/08/24 13:01:11;;;;;;;;;;;;;;;;;;2080445;28;4720;-71
2021/08/24 13:02:11;;;;;;;;;;;;;;;;;;2080415;28;5140;-71
2021/08/24 13:03:13;;;;;;;;;;;;;;;;;;2080523;28;5080;-71
2021/08/24 13:04:14;;;;;;;;;;;;;;;;;;2079855;28;4907;-71
2021/08/24 13:05:15;;;;;;;;;;;;;;;;;;2080770;28;5093;-71
2021/08/24 13:06:16;;;;;;;;;;;;;;;;;;2079402;28;5429;-71
2021/08/24 13:07:17;;;;;;;;;;;;;;;;;;2075723;28;4191;-71
2021/08/24 13:08:17;;;;;;;;;;;;;;;;;;2080085;28;2373;-71
2021/08/24 13:09:18;;;;;;;;;;;;;;;;;;2076557;28;5918;-72
2021/08/24 13:10:18;;;;;;;;;;;;;;;;;;2079915;28;4536;-72
2021/08/24 13:11:19;;;;;;;;;;;;;;;;;;2080831;28;4687;-71
2021/08/24 13:12:21;;;;;;;;;;;;;;;;;;2082097;28;2445;-71
2021/08/24 13:13:22;;;;;;;;;;;;;;;;;;2082397;28;3063;-71
2021/08/24 13:14:23;;;;;;;;;;;;;;;;;;2080441;28;5034;-71
2021/08/24 13:15:23;;;;;;;;;;;;;;;;;;2078617;28;5706;-72
2021/08/24 13:16:25;;;;;;;;;;;;;;;;;;2077362;28;4570;-72
2021/08/24 13:17:27;;;;;;;;;;;;;;;;;;2079122;28;5074;-72
2021/08/24 13:18:28;;;;;;;;;;;;;;;;;;2082804;28;2918;-72
2021/08/24 13:19:30;;;;;;;;;;;;;;;;;;2079848;28;5134;-72
2021/08/24 13:20:30;;;;;;;;;;;;;;;;;;2079450;28;4293;-72
2021/08/24 13:21:31;;;;;;;;;;;;;;;;;;2080705;28;5104;-72
2021/08/24 13:22:32;;;;;;;;;;;;;;;;;;2081623;28;2523;-71
2021/08/24 13:23:32;;;;;;;;;;;;;;;;;;2080657;28;4855;-72
2021/08/24 13:24:34;;;;;;;;;;;;;;;;;;2080139;28;4681;-72
2021/08/24 13:26:53;;;;;;;;;;;;;;;;;;2080324;28;3676;-71
2021/08/24 13:27:54;;;;;;;;;;;;;;;;;;2077296;28;5054;-72
2021/08/24 13:28:54;;;;;;;;;;;;;;;;;;2079496;28;4851;-72
2021/08/24 13:29:55;;;;;;;;;;;;;;;;;;2082621;28;3995;-72
2021/08/24 13:30:55;;;;;;;;;;;;;;;;;;2081800;28;3989;-71
2021/08/24 13:31:56;;;;;;;;;;;;;;;;;;2084312;28;1004;-72
2021/08/24 13:32:56;;;;;;;;;;;;;;;;;;2081150;28;1045;-71
2021/08/24 13:33:57;;;;;;;;;;;;;;;;;;2081201;28;1118;-71
2021/08/24 13:34:59;;;;;;;;;;;;;;;;;;2081314;28;1576;-72
2021/08/24 13:35:59;;;;;;;;;;;;;;;;;;2081629;28;1056;-71
2021/08/24 13:37:00;;;;;;;;;;;;;;;;;;2080486;28;1016;-71
2021/08/24 13:38:01;;;;;;;;;;;;;;;;;;2080010;28;4719;-71
2021/08/24 13:39:02;;;;;;;;;;;;;;;;;;2079159;28;1071;-71
2021/08/24 13:40:06;;;;;;;;;;;;;;;;;;2081306;28;3913;-71
2021/08/24 13:41:06;;;;;;;;;;;;;;;;;;2078227;28;1106;-71
2021/08/24 13:42:07;;;;;;;;;;;;;;;;;;2081681;28;1597;-71
2021/08/24 13:43:07;;;;;;;;;;;;;;;;;;2080998;28;3992;-71
2021/08/24 13:44:08;;;;;;;;;;;;;;;;;;2079594;28;1085;-71
2021/08/24 13:45:09;;;;;;;;;;;;;;;;;;2078579;28;1040;-71
2021/08/24 13:46:09;;;;;;;;;;;;;;;;;;2079503;28;1248;-72
2021/08/24 13:47:11;;;;;;;;;;;;;;;;;;2080533;28;3954;-71
2021/08/24 13:48:11;;;;;;;;;;;;;;;;;;2079852;28;4775;-71
2021/08/24 13:49:12;;;;;;;;;;;;;;;;;;2079777;28;1228;-71
2021/08/24 13:50:13;;;;;;;;;;;;;;;;;;2081826;28;4443;-71
2021/08/24 13:51:13;;;;;;;;;;;;;;;;;;2081159;28;1227;-71
2021/08/24 13:52:15;;;;;;;;;;;;;;;;;;2081511;28;1068;-72
2021/08/24 13:53:15;;;;;;;;;;;;;;;;;;2080680;28;1153;-71
2021/08/24 13:54:16;;;;;;;;;;;;;;;;;;2080399;28;3731;-71
2021/08/24 13:55:17;;;;;;;;;;;;;;;;;;2082580;28;1107;-71
2021/08/24 13:56:18;;;;;;;;;;;;;;;;;;2082233;28;1003;-71
2021/08/24 13:57:18;;;;;;;;;;;;;;;;;;2082549;28;1253;-71
2021/08/24 13:58:20;;;;;;;;;;;;;;;;;;2078903;28;4587;-71
2021/08/24 13:59:20;;;;;;;;;;;;;;;;;;2082799;28;1013;-71
2021/08/24 14:00:22;;;;;;;;;;;;;;;;;;2082691;28;3934;-71
2021/08/24 14:01:23;;;;;;;;;;;;;;;;;;2081908;28;1048;-71
2021/08/24 14:02:24;;;;;;;;;;;;;;;;;;2082467;28;1009;-71
2021/08/24 14:03:24;;;;;;;;;;;;;;;;;;2082276;28;3746;-71
2021/08/24 14:04:25;;;;;;;;;;;;;;;;;;2081651;28;1158;-71
2021/08/24 14:05:25;;;;;;;;;;;;;;;;;;2082002;28;1009;-71
2021/08/24 14:06:26;;;;;;;;;;;;;;;;;;2081112;28;1141;-71
2021/08/24 14:07:27;;;;;;;;;;;;;;;;;;2081796;28;2646;-71
2021/08/24 14:08:30;;;;;;;;;;;;;;;;;;2078786;28;4692;-71
2021/08/24 14:09:31;;;;;;;;;;;;;;;;;;2082028;28;1071;-71
2021/08/24 14:10:32;;;;;;;;;;;;;;;;;;2081790;28;4472;-71
2021/08/24 14:11:33;;;;;;;;;;;;;;;;;;2082134;28;1268;-71
2021/08/24 14:12:35;;;;;;;;;;;;;;;;;;2083110;28;1126;-72
2021/08/24 14:13:35;;;;;;;;;;;;;;;;;;2081344;28;1705;-71
2021/08/24 14:14:36;;;;;;;;;;;;;;;;;;2082878;28;1044;-71
2021/08/24 14:15:37;;;;;;;;;;;;;;;;;;2082183;28;1054;-72
2021/08/24 14:16:37;;;;;;;;;;;;;;;;;;2082127;28;1052;-71
2021/08/24 14:17:38;;;;;;;;;;;;;;;;;;2080959;28;4580;-71
2021/08/24 14:18:39;;;;;;;;;;;;;;;;;;2082863;28;4783;-71
2021/08/24 14:19:39;;;;;;;;;;;;;;;;;;2081991;28;3801;-71
2021/08/24 14:20:40;;;;;;;;;;;;;;;;;;2074877;28;5261;-71
2021/08/24 14:21:41;;;;;;;;;;;;;;;;;;2079777;28;4980;-72
2021/08/24 14:22:42;;;;;;;;;;;;;;;;;;2081171;28;5180;-71
2021/08/24 14:23:43;;;;;;;;;;;;;;;;;;2080146;28;4846;-71
2021/08/24 14:24:44;;;;;;;;;;;;;;;;;;2076332;28;4466;-71
2021/08/24 14:25:45;;;;;;;;;;;;;;;;;;2079395;28;3814;-72
2021/08/24 14:26:46;;;;;;;;;;;;;;;;;;2079389;28;5061;-71
2021/08/24 14:27:47;;;;;;;;;;;;;;;;;;2080896;28;5078;-71
2021/08/24 14:28:47;;;;;;;;;;;;;;;;;;2077579;28;5365;-71
2021/08/24 14:29:48;;;;;;;;;;;;;;;;;;2079207;28;5274;-71
2021/08/24 14:30:49;;;;;;;;;;;;;;;;;;2079924;28;3465;-71
2021/08/24 14:31:49;;;;;;;;;;;;;;;;;;2080641;28;3608;-72
2021/08/24 14:32:52;;;;;;;;;;;;;;;;;;2081470;28;2101;-71
2021/08/24 14:33:52;;;;;;;;;;;;;;;;;;2081409;28;2276;-71
2021/08/24 14:34:53;;;;;;;;;;;;;;;;;;2081577;28;2090;-71
2021/08/24 14:35:55;;;;;;;;;;;;;;;;;;2078483;28;3383;-72
2021/08/24 14:36:56;;;;;;;;;;;;;;;;;;2079603;28;4331;-71
2021/08/24 14:37:57;;;;;;;;;;;;;;;;;;2080044;28;2499;-71
2021/08/24 14:38:58;;;;;;;;;;;;;;;;;;2079851;28;5035;-71
2021/08/24 14:39:58;;;;;;;;;;;;;;;;;;2080979;28;4277;-71
2021/08/24 14:40:59;;;;;;;;;;;;;;;;;;2078215;28;4832;-71
2021/08/24 14:42:00;;;;;;;;;;;;;;;;;;2080530;28;4962;-72
2021/08/24 14:43:00;;;;;;;;;;;;;;;;;;2082349;28;5207;-71
2021/08/24 14:44:02;;;;;;;;;;;;;;;;;;2080927;28;5141;-71
2021/08/24 14:45:02;;;;;;;;;;;;;;;;;;2080878;28;4894;-71
2021/08/24 14:46:03;;;;;;;;;;;;;;;;;;2082091;28;4804;-71
2021/08/24 14:47:03;;;;;;;;;;;;;;;;;;2084996;28;1160;-71
2021/08/24 14:48:04;;;;;;;;;;;;;;;;;;2074109;28;4901;-71
2021/08/24 14:49:04;;;;;;;;;;;;;;;;;;2076329;28;3867;-71
2021/08/24 14:50:05;;;;;;;;;;;;;;;;;;2077960;28;3431;-71
2021/08/24 14:51:05;;;;;;;;;;;;;;;;;;2081402;28;3862;-71
2021/08/24 14:52:06;;;;;;;;;;;;;;;;;;2081702;28;3662;-71
2021/08/24 14:53:06;;;;;;;;;;;;;;;;;;2081028;28;4955;-71
2021/08/24 14:54:08;;;;;;;;;;;;;;;;;;2079642;28;3386;-71
2021/08/24 14:55:08;;;;;;;;;;;;;;;;;;2082681;28;1784;-71
2021/08/24 14:56:09;;;;;;;;;;;;;;;;;;2079377;28;4384;-71
2021/08/24 14:57:09;;;;;;;;;;;;;;;;;;2075925;28;2851;-71
2021/08/24 14:58:10;;;;;;;;;;;;;;;;;;2077651;28;4728;-71
2021/08/24 14:59:10;;;;;;;;;;;;;;;;;;2081685;28;4106;-71
2021/08/24 15:00:11;;;;;;;;;;;;;;;;;;2077224;28;5075;-71
2021/08/24 15:01:11;;;;;;;;;;;;;;;;;;2076999;28;4285;-71
2021/08/24 15:02:14;;;;;;;;;;;;;;;;;;2078714;28;5047;-71
2021/08/24 15:03:14;;;;;;;;;;;;;;;;;;2081194;28;2864;-71
2021/08/24 15:04:15;;;;;;;;;;;;;;;;;;2080333;28;4506;-71
2021/08/24 15:05:16;;;;;;;;;;;;;;;;;;2079243;28;5312;-72
2021/08/24 15:06:17;;;;;;;;;;;;;;;;;;2080178;28;4071;-71
2021/08/24 15:07:17;;;;;;;;;;;;;;;;;;2081641;28;4689;-71
2021/08/24 15:08:18;;;;;;;;;;;;;;;;;;2079316;28;2695;-71
2021/08/24 15:09:18;;;;;;;;;;;;;;;;;;2078772;28;4548;-71
2021/08/24 15:10:21;;;;;;;;;;;;;;;;;;2075003;28;5138;-71
2021/08/24 15:11:22;;;;;;;;;;;;;;;;;;2081302;28;3464;-71
2021/08/24 15:12:22;;;;;;;;;;;;;;;;;;2080274;28;4336;-71
2021/08/24 15:13:23;;;;;;;;;;;;;;;;;;2080647;28;4094;-71
2021/08/24 15:14:23;;;;;;;;;;;;;;;;;;2081922;28;1074;-71
2021/08/24 15:15:24;;;;;;;;;;;;;;;;;;2080356;28;4631;-72
2021/08/24 15:16:24;;;;;;;;;;;;;;;;;;2079300;28;3960;-71
2021/08/24 15:17:27;;;;;;;;;;;;;;;;;;2080477;28;2118;-71
2021/08/24 15:18:27;;;;;;;;;;;;;;;;;;2078900;28;4829;-72
2021/08/24 15:19:28;;;;;;;;;;;;;;;;;;2081452;28;4161;-71
2021/08/24 15:20:28;;;;;;;;;;;;;;;;;;2080614;28;4677;-71
2021/08/24 15:21:29;;;;;;;;;;;;;;;;;;2073557;28;4320;-71
2021/08/24 15:22:30;;;;;;;;;;;;;;;;;;2078178;28;4567;-71
2021/08/24 15:23:31;;;;;;;;;;;;;;;;;;2080505;28;3706;-72
2021/08/24 15:24:31;;;;;;;;;;;;;;;;;;2080601;28;4461;-72
2021/08/24 15:25:32;;;;;;;;;;;;;;;;;;2081266;28;4203;-71
2021/08/24 15:26:33;;;;;;;;;;;;;;;;;;2082232;28;1543;-72
2021/08/24 15:27:34;;;;;;;;;;;;;;;;;;2079267;28;2682;-71
2021/08/24 15:28:34;;;;;;;;;;;;;;;;;;2081625;28;2866;-71
2021/08/24 15:29:36;;;;;;;;;;;;;;;;;;2081701;28;1554;-71
2021/08/24 15:30:37;;;;;;;;;;;;;;;;;;2083064;28;4049;-72
2021/08/24 15:31:37;;;;;;;;;;;;;;;;;;2081063;28;1173;-71
2021/08/24 15:32:38;;;;;;;;;;;;;;;;;;2082214;28;4144;-71
2021/08/24 15:33:38;;;;;;;;;;;;;;;;;;2081112;28;1400;-71
2021/08/24 15:34:39;;;;;;;;;;;;;;;;;;2082405;28;1086;-71
2021/08/24 15:35:41;;;;;;;;;;;;;;;;;;2081615;28;1487;-71
2021/08/24 15:36:41;;;;;;;;;;;;;;;;;;2079000;28;4667;-71
2021/08/24 15:37:42;;;;;;;;;;;;;;;;;;2079434;28;4768;-71
2021/08/24 15:38:42;;;;;;;;;;;;;;;;;;2082372;28;4735;-72
2021/08/24 15:39:43;;;;;;;;;;;;;;;;;;2080473;28;987;-72
2021/08/24 15:40:43;;;;;;;;;;;;;;;;;;2081715;28;2197;-71
2021/08/24 15:41:44;;;;;;;;;;;;;;;;;;2080945;28;1339;-72
2021/08/24 15:42:46;;;;;;;;;;;;;;;;;;2077840;28;3797;-71
2021/08/24 15:43:46;;;;;;;;;;;;;;;;;;2078428;28;3990;-72
2021/08/24 15:44:47;;;;;;;;;;;;;;;;;;2082232;28;3507;-71
2021/08/24 15:45:48;;;;;;;;;;;;;;;;;;2082200;28;1144;-71
2021/08/24 15:46:49;;;;;;;;;;;;;;;;;;2081422;28;985;-71
2021/08/24 15:47:50;;;;;;;;;;;;;;;;;;2076671;28;4009;-71
2021/08/24 15:48:52;;;;;;;;;;;;;;;;;;2079947;28;2618;-72
2021/08/24 15:49:53;;;;;;;;;;;;;;;;;;2081083;28;2161;-71
2021/08/24 15:50:54;;;;;;;;;;;;;;;;;;2082195;28;4395;-71
2021/08/24 15:51:55;;;;;;;;;;;;;;;;;;2080488;28;3933;-71
2021/08/24 15:52:56;;;;;;;;;;;;;;;;;;2081205;28;4267;-72
2021/08/24 15:53:56;;;;;;;;;;;;;;;;;;2081156;28;4199;-71
2021/08/24 15:54:57;;;;;;;;;;;;;;;;;;2082247;28;4066;-72
2021/08/24 15:55:57;;;;;;;;;;;;;;;;;;2082537;28;1089;-71
2021/08/24 15:56:58;;;;;;;;;;;;;;;;;;2081632;28;1166;-72
2021/08/24 15:57:59;;;;;;;;;;;;;;;;;;2082199;28;2506;-72
2021/08/24 15:59:00;;;;;;;;;;;;;;;;;;2080851;28;3947;-72
2021/08/24 16:00:00;;;;;;;;;;;;;;;;;;2082174;28;4092;-72
2021/08/24 16:01:01;;;;;;;;;;;;;;;;;;2080831;28;2168;-72
2021/08/24 16:02:02;;;;;;;;;;;;;;;;;;2083542;28;4124;-72
2021/08/24 16:03:03;;;;;;;;;;;;;;;;;;2082311;28;971;-72
2021/08/24 16:04:03;;;;;;;;;;;;;;;;;;2082802;28;1080;-72
2021/08/24 16:05:04;;;;;;;;;;;;;;;;;;2082729;28;1238;-72
2021/08/24 16:06:04;;;;;;;;;;;;;;;;;;2082954;28;1025;-72
2021/08/24 16:07:05;;;;;;;;;;;;;;;;;;2081743;28;1156;-71
2021/08/24 16:08:06;;;;;;;;;;;;;;;;;;2084170;28;1080;-72
2021/08/24 16:09:07;;;;;;;;;;;;;;;;;;2079116;28;4532;-72
2021/08/24 16:10:07;;;;;;;;;;;;;;;;;;2082746;28;3898;-72
2021/08/24 16:11:08;;;;;;;;;;;;;;;;;;2081714;28;1089;-72
2021/08/24 16:12:09;;;;;;;;;;;;;;;;;;2083190;28;1108;-72
2021/08/24 16:13:10;;;;;;;;;;;;;;;;;;2083157;28;1109;-71
2021/08/24 16:14:10;;;;;;;;;;;;;;;;;;2083445;28;1115;-72
2021/08/24 16:15:11;;;;;;;;;;;;;;;;;;2084541;28;1067;-72
2021/08/24 16:16:11;;;;;;;;;;;;;;;;;;2084366;28;1136;-72
2021/08/24 16:17:13;;;;;;;;;;;;;;;;;;2083277;28;4523;-72
2021/08/24 16:18:13;;;;;;;;;;;;;;;;;;2079790;28;4150;-72
2021/08/24 16:19:14;;;;;;;;;;;;;;;;;;2083921;28;1116;-72
2021/08/24 16:20:15;;;;;;;;;;;;;;;;;;2084141;28;3932;-72
2021/08/24 16:21:16;;;;;;;;;;;;;;;;;;2080503;28;4067;-71
2021/08/24 16:22:17;;;;;;;;;;;;;;;;;;2086227;28;1149;-72
2021/08/24 16:23:17;;;;;;;;;;;;;;;;;;2083929;28;1035;-72
2021/08/24 16:24:19;;;;;;;;;;;;;;;;;;2083721;28;1054;-72
2021/08/24 16:25:19;;;;;;;;;;;;;;;;;;2084293;28;1067;-72
2021/08/24 16:26:20;;;;;;;;;;;;;;;;;;2083905;28;1483;-71
2021/08/24 16:27:20;;;;;;;;;;;;;;;;;;2083942;28;1638;-72
2021/08/24 16:28:21;;;;;;;;;;;;;;;;;;2082546;28;1811;-72
2021/08/24 16:29:22;;;;;;;;;;;;;;;;;;2081421;28;4726;-72
2021/08/24 16:30:23;;;;;;;;;;;;;;;;;;2082966;28;3813;-71
2021/08/24 16:31:24;;;;;;;;;;;;;;;;;;2084277;28;1089;-72
2021/08/24 16:32:24;;;;;;;;;;;;;;;;;;2083451;28;1067;-72
2021/08/24 16:33:25;;;;;;;;;;;;;;;;;;2084048;28;1108;-72
2021/08/24 16:34:25;;;;;;;;;;;;;;;;;;2083682;28;1025;-72
2021/08/24 16:35:26;;;;;;;;;;;;;;;;;;2084282;28;1112;-72
2021/08/24 16:36:27;;;;;;;;;;;;;;;;;;2083032;28;1049;-72
2021/08/24 16:37:27;;;;;;;;;;;;;;;;;;2084474;28;1065;-72
2021/08/24 16:38:28;;;;;;;;;;;;;;;;;;2080488;28;4049;-71
2021/08/24 16:39:29;;;;;;;;;;;;;;;;;;2081615;28;4107;-72
2021/08/24 16:40:30;;;;;;;;;;;;;;;;;;2081845;28;4872;-71
2021/08/24 16:41:30;;;;;;;;;;;;;;;;;;2081891;28;4052;-72
2021/08/24 16:42:31;;;;;;;;;;;;;;;;;;2080805;28;3696;-72
2021/08/24 16:43:31;;;;;;;;;;;;;;;;;;2081678;28;3003;-71
2021/08/24 16:44:32;;;;;;;;;;;;;;;;;;2083783;28;1041;-71
2021/08/24 16:45:32;;;;;;;;;;;;;;;;;;2083538;28;1050;-71
2021/08/24 16:46:35;;;;;;;;;;;;;;;;;;2082320;28;1189;-72
2021/08/24 16:47:35;;;;;;;;;;;;;;;;;;2081746;28;2471;-71
2021/08/24 16:48:37;;;;;;;;;;;;;;;;;;2083762;28;2559;-72
2021/08/24 16:49:37;;;;;;;;;;;;;;;;;;2082036;28;3993;-72
2021/08/24 16:50:38;;;;;;;;;;;;;;;;;;2082613;28;4068;-72
2021/08/24 16:51:40;;;;;;;;;;;;;;;;;;2082888;28;3893;-72
2021/08/24 16:52:40;;;;;;;;;;;;;;;;;;2082831;28;1101;-72
2021/08/24 16:53:41;;;;;;;;;;;;;;;;;;2082091;28;1081;-72
2021/08/24 16:54:41;;;;;;;;;;;;;;;;;;2079980;28;1948;-72
2021/08/24 16:55:42;;;;;;;;;;;;;;;;;;2079569;28;3992;-72
2021/08/24 16:56:42;;;;;;;;;;;;;;;;;;2081535;28;1563;-72
2021/08/24 16:57:43;;;;;;;;;;;;;;;;;;2079248;28;2655;-72
2021/08/24 16:58:43;;;;;;;;;;;;;;;;;;2081197;28;4010;-72
2021/08/24 16:59:44;;;;;;;;;;;;;;;;;;2076040;28;4852;-72
2021/08/24 17:00:45;;;;;;;;;;;;;;;;;;2082003;28;4153;-72
2021/08/24 17:01:46;;;;;;;;;;;;;;;;;;2084270;28;4057;-72
2021/08/24 17:02:46;;;;;;;;;;;;;;;;;;2081617;28;4606;-71
2021/08/24 17:03:47;;;;;;;;;;;;;;;;;;2078919;28;4723;-71
2021/08/24 17:04:47;;;;;;;;;;;;;;;;;;2082208;28;4080;-72
2021/08/24 17:05:49;;;;;;;;;;;;;;;;;;2084262;28;4195;-71
2021/08/24 17:06:52;;;;;;;;;;;;;;;;;;2081590;28;5528;-72
2021/08/24 17:07:56;;;;;;;;;;;;;;;;;;2079824;28;4801;-72
2021/08/24 17:08:57;;;;;;;;;;;;;;;;;;2083073;28;4011;-71
2021/08/24 17:09:58;;;;;;;;;;;;;;;;;;2082387;28;3468;-72
2021/08/24 17:10:59;;;;;;;;;;;;;;;;;;2080008;28;3686;-72
2021/08/24 17:12:01;;;;;;;;;;;;;;;;;;2081301;28;3965;-72
2021/08/24 17:13:03;;;;;;;;;;;;;;;;;;2080807;28;3790;-72
2021/08/24 17:14:04;;;;;;;;;;;;;;;;;;2081173;28;4249;-72
2021/08/24 17:15:04;;;;;;;;;;;;;;;;;;2082639;28;3908;-72
2021/08/24 17:16:06;;;;;;;;;;;;;;;;;;2080496;28;4100;-72
2021/08/24 17:17:07;;;;;;;;;;;;;;;;;;2079373;28;5015;-72
2021/08/24 17:18:07;;;;;;;;;;;;;;;;;;2080943;28;3711;-72
2021/08/24 17:19:08;;;;;;;;;;;;;;;;;;2081610;28;3784;-72
2021/08/24 17:20:08;;;;;;;;;;;;;;;;;;2081513;28;3307;-72
2021/08/24 17:21:09;;;;;;;;;;;;;;;;;;2075986;28;4088;-71
2021/08/24 17:22:10;;;;;;;;;;;;;;;;;;2081463;28;1053;-72
2021/08/24 17:23:11;;;;;;;;;;;;;;;;;;2082463;28;1033;-72
2021/08/24 17:24:12;;;;;;;;;;;;;;;;;;2079852;28;4641;-71
2021/08/24 17:25:12;;;;;;;;;;;;;;;;;;2082254;28;4622;-72